Terminal Aerodrome Forecast
Issued by NWS

Home | Current Version | Previous Version | Graphics & Text | Print | Product List | Glossary On
Versions: 1 2 3 4 5 6 7 8 9 10 11 12 13 14 15 16
000
FTUS43 KGRB 181700
TAFMTW
TAF
KMTW 181737Z 1818/1918 27012G22KT P6SM FEW020 FEW030
      TEMPO 1822/1902 SCT018 BKN025
     FM190200 25009G15KT P6SM SCT025 BKN035
     FM190900 22005KT P6SM BKN040 BKN100
     FM191200 19005KT 5SM -SN BKN025 OVC040
      TEMPO 1912/1916 1 1/2SM -SN
     FM191700 26010G15KT P6SM -SN BKN035 BKN050=

USA.gov is the U.S. government's official web portal to all federal, state and local government web resources and services.